Jefferson, Louisiana
Current Conditions -  °F | °C
As of 7:53 PM on Thursday 20 Nov 2014 (Local Time) from KMSY Reporting Station
Few Clouds Few Clouds  
Wind Chill: 57°   Ceiling: Unl
Heat Index: 57°   Visibility: 10mi
Dew Point: 45°   Wind: 7mph
Humidity: 64%   Direction: 140°SE
Pressure: 30.23"   Gusts: NA
Location:  29.96°N, 90.17°W
Report Text: KMSY 210153Z 14006KT 10SM FEW060 14/07 A3023 RMK AO2 SLP238 T01390072
Loading
Personal Weather Stations






























Interactive Weather Map New forecast layout! Learn more

10-Day Weather Forecast

Advertisements
Track Severe Weather on mobile